Time;durP1;ratioP1;P1;durP2;ratioP2;P2;SDS_P1;SDS_P2;PMS_P1;PMS_P2;Temp;Humidity;BMP_temperature;BMP_pressure;BME280_temperature;BME280_humidity;BME280_pressure;Samples;Min_cycle;Max_cycle;Signal;HPM_P1;HPM_P2
2023/02/13 00:02:18;;;;;;;40.83;23.98;;;;;;;7.85;100.00;103851.97;5053365;28;20040;-65
2023/02/13 00:04:44;;;;;;;35.47;22.15;;;;;;;7.91;100.00;103849.50;5067749;28;20043;-65
2023/02/13 00:07:12;;;;;;;37.40;22.23;;;;;;;7.83;100.00;103849.31;5059610;28;20067;-63
2023/02/13 00:09:38;;;;;;;42.08;23.77;;;;;;;7.76;100.00;103851.72;5048652;28;20117;-57
2023/02/13 00:12:04;;;;;;;47.53;23.40;;;;;;;7.72;100.00;103850.75;5051820;28;20116;-65
2023/02/13 00:14:30;;;;;;;43.40;24.20;;;;;;;7.75;100.00;103850.84;5048967;28;20050;-58
2023/02/13 00:16:55;;;;;;;48.33;24.05;;;;;;;7.84;100.00;103844.94;5048378;28;20552;-63
2023/02/13 00:19:20;;;;;;;41.00;23.88;;;;;;;7.83;100.00;103849.31;5048527;28;20108;-63
2023/02/13 00:21:46;;;;;;;43.85;22.67;;;;;;;7.77;100.00;103843.03;5057154;28;20506;-65
2023/02/13 00:24:11;;;;;;;47.42;25.15;;;;;;;7.85;100.00;103841.47;5069474;28;20032;-59
2023/02/13 00:26:38;;;;;;;43.65;24.58;;;;;;;7.84;100.00;103844.94;5068881;28;20399;-65
2023/02/13 00:29:04;;;;;;;45.05;24.80;;;;;;;7.78;100.00;103850.03;5066339;28;20469;-64
2023/02/13 00:31:29;;;;;;;40.15;23.80;;;;;;;7.74;100.00;103838.59;5049063;28;20048;-65
2023/02/13 00:33:55;;;;;;;48.88;24.73;;;;;;;7.74;100.00;103843.84;5048891;28;20029;-66
2023/02/13 00:36:21;;;;;;;43.72;25.05;;;;;;;7.75;100.00;103840.34;5049093;28;20017;-58
2023/02/13 00:38:47;;;;;;;42.90;23.38;;;;;;;7.67;100.00;103831.38;5051939;28;20495;-66
2023/02/13 00:41:13;;;;;;;43.88;23.80;;;;;;;7.74;100.00;103841.22;5048669;28;20493;-64
2023/02/13 00:43:39;;;;;;;44.50;23.27;;;;;;;7.69;100.00;103841.09;5047640;28;20474;-64
2023/02/13 00:46:05;;;;;;;46.58;24.05;;;;;;;7.68;100.00;103841.03;5049343;28;20112;-64
2023/02/13 00:48:32;;;;;;;46.00;24.70;;;;;;;7.75;100.00;103834.19;5048714;28;20363;-66
2023/02/13 00:50:57;;;;;;;44.88;23.25;;;;;;;7.69;100.00;103838.47;5048841;28;20068;-61
2023/02/13 00:53:24;;;;;;;44.35;23.98;;;;;;;7.74;100.00;103835.97;5048955;28;20048;-65
2023/02/13 00:55:49;;;;;;;45.75;24.73;;;;;;;7.71;100.00;103830.63;5049367;28;20120;-65
2023/02/13 00:58:15;;;;;;;42.63;23.80;;;;;;;7.79;100.00;103836.94;5050338;28;20119;-65
2023/02/13 01:00:41;;;;;;;44.00;24.23;;;;;;;7.74;100.00;103833.34;5047973;28;20720;-64
2023/02/13 01:03:07;;;;;;;45.72;24.05;;;;;;;7.68;100.00;103834.03;5046848;28;20025;-63
2023/02/13 01:05:32;;;;;;;45.88;23.50;;;;;;;7.64;100.00;103826.94;5047701;28;20021;-64
2023/02/13 01:07:58;;;;;;;50.30;24.33;;;;;;;7.65;100.00;103828.69;5048675;28;20352;-62
2023/02/13 01:10:23;;;;;;;42.47;23.30;;;;;;;7.62;100.00;103825.13;5047578;28;20029;-66
2023/02/13 01:12:49;;;;;;;43.90;23.17;;;;;;;7.75;100.00;103819.34;5046267;28;20107;-60
2023/02/13 01:15:14;;;;;;;46.92;25.02;;;;;;;7.64;100.00;103820.78;5049235;28;20036;-64
2023/02/13 01:17:39;;;;;;;45.55;23.90;;;;;;;7.72;100.00;103824.53;5046710;28;20519;-62
2023/02/13 01:20:09;;;;;;;42.25;24.08;;;;;;;7.75;100.00;103819.34;5047639;28;20051;-64
2023/02/13 01:22:35;;;;;;;39.63;23.23;;;;;;;7.76;100.00;103815.88;5065899;28;20696;-68
2023/02/13 01:25:00;;;;;;;44.92;24.27;;;;;;;7.71;100.00;103814.88;5067842;28;20031;-58
2023/02/13 01:27:29;;;;;;;46.40;24.27;;;;;;;7.75;100.00;103816.72;5067492;28;20029;-62
2023/02/13 01:29:54;;;;;;;44.05;23.45;;;;;;;7.80;100.00;103816.84;5051999;28;20041;-61
2023/02/13 01:32:20;;;;;;;44.28;24.70;;;;;;;7.63;100.00;103812.03;5047460;28;20048;-63
2023/02/13 01:34:45;;;;;;;44.08;24.13;;;;;;;7.59;100.00;103807.56;5046978;28;20040;-62
2023/02/13 01:37:11;;;;;;;44.90;25.23;;;;;;;7.63;100.00;103811.16;5064863;28;20135;-63
2023/02/13 01:39:36;;;;;;;44.80;24.05;;;;;;;7.71;100.00;103809.63;5069054;28;20021;-64
2023/02/13 01:42:02;;;;;;;43.70;22.88;;;;;;;7.68;100.00;103806.91;5068728;28;20032;-63
2023/02/13 01:44:47;;;;;;;44.33;23.13;;;;;;;7.68;100.00;103801.66;5067604;28;20028;-61
2023/02/13 01:47:17;;;;;;;43.53;23.33;;;;;;;7.69;100.00;103806.06;5066634;28;20032;-62
2023/02/13 01:49:44;;;;;;;43.50;23.70;;;;;;;7.68;100.00;103807.78;5052093;28;20037;-60
2023/02/13 01:52:10;;;;;;;48.33;24.40;;;;;;;7.69;100.00;103806.06;5046320;28;20502;-65
2023/02/13 01:54:36;;;;;;;44.88;23.85;;;;;;;7.72;100.00;103808.78;5045995;28;20068;-63
2023/02/13 01:57:05;;;;;;;45.65;23.77;;;;;;;7.73;100.00;103809.66;5048142;28;20031;-64
2023/02/13 01:59:32;;;;;;;;;;;;;;;7.79;100.00;103804.56;5048485;28;20078;-61
2023/02/13 02:01:59;;;;;;;41.47;22.30;;;;;;;7.76;100.00;103810.63;5060311;28;20367;-61
2023/02/13 02:04:28;;;;;;;46.08;23.95;;;;;;;7.75;100.00;103815.81;5033642;28;20020;-63
2023/02/13 02:07:01;;;;;;;41.88;23.38;;;;;;;7.75;100.00;103814.09;5065992;28;20123;-63
2023/02/13 02:09:29;;;;;;;46.33;24.50;;;;;;;7.76;100.00;103807.09;5066170;28;20016;-59
2023/02/13 02:12:00;;;;;;;41.63;22.83;;;;;;;7.77;100.00;103809.75;5050059;28;20043;-64
2023/02/13 02:14:26;;;;;;;43.92;23.63;;;;;;;7.76;100.00;103805.38;5049351;28;20332;-64
2023/02/13 02:16:52;;;;;;;50.33;24.95;;;;;;;7.77;100.00;103811.53;5066200;28;20364;-59
2023/02/13 02:19:32;;;;;;;45.40;25.13;;;;;;;7.80;100.00;103806.34;5062597;28;20036;-65
2023/02/13 02:22:04;;;;;;;45.90;24.80;;;;;;;7.73;100.00;103807.91;5046240;28;20082;-64
2023/02/13 02:25:14;;;;;;;44.30;24.20;;;;;;;7.76;100.00;103800.13;5136832;22;20352;-66
2023/02/13 02:28:04;;;;;;;41.92;23.63;;;;;;;7.75;100.00;103802.69;5085178;28;20036;-65
2023/02/13 02:30:38;;;;;;;44.40;24.00;;;;;;;7.77;100.00;103804.50;5087060;28;20055;-61
2023/02/13 02:33:12;;;;;;;44.00;23.08;;;;;;;7.83;100.00;103804.66;5086136;28;20046;-63
2023/02/13 02:35:54;;;;;;;43.53;24.50;;;;;;;7.80;100.00;103796.72;5086866;28;20027;-64
2023/02/13 02:38:37;;;;;;;42.80;23.45;;;;;;;7.79;100.00;103794.94;5087361;28;20120;-65
2023/02/13 02:41:42;;;;;;;46.42;25.17;;;;;;;7.71;100.00;103801.75;5086933;28;20036;-66
2023/02/13 02:44:14;;;;;;;44.65;23.30;;;;;;;7.61;100.00;103790.09;5086312;28;20024;-65
2023/02/13 02:49:57;;;;;;;48.83;24.05;;;;;;;7.68;100.00;103791.19;5065626;28;20070;-61
2023/02/13 02:52:47;;;;;;;49.75;24.27;;;;;;;7.69;100.00;103782.44;5065220;28;20401;-63
2023/02/13 02:55:43;;;;;;;45.17;23.55;;;;;;;7.62;100.00;103789.28;5066675;28;20055;-60
2023/02/13 03:06:42;;;;;;;44.28;24.15;;;;;;;7.58;100.00;103790.03;5067987;28;20099;-64
2023/02/13 03:14:39;;;;;;;45.78;23.65;;;;;;;7.62;100.00;103793.63;5087365;28;20123;-64
2023/02/13 03:23:10;;;;;;;45.83;23.90;;;;;;;7.69;100.00;103782.44;5086573;28;20051;-65
2023/02/13 03:25:59;;;;;;;42.95;23.60;;;;;;;7.67;100.00;103784.13;5079881;28;20037;-63
2023/02/13 03:32:00;;;;;;;45.80;24.52;;;;;;;7.58;100.00;103784.78;5065803;28;20159;-56
2023/02/13 03:37:53;;;;;;;46.13;24.75;;;;;;;7.61;100.00;103779.63;5067113;28;20033;-62
2023/02/13 03:41:17;;;;;;;49.80;24.73;;;;;;;7.60;100.00;103777.84;5070188;28;20540;-64
2023/02/13 03:43:26;;;;;;;45.28;23.40;;;;;;;7.65;100.00;103780.59;5067779;28;20645;-64
2023/02/13 03:45:52;;;;;;;44.38;23.77;;;;;;;7.63;100.00;103774.41;5079598;28;20043;-56
2023/02/13 03:51:21;;;;;;;46.95;24.92;;;;;;;7.55;100.00;103775.09;5089459;28;20622;-64
2023/02/13 03:53:48;;;;;;;43.58;24.23;;;;;;;7.61;100.00;103763.00;5090696;28;20059;-63
2023/02/13 03:59:17;;;;;;;42.70;23.30;;;;;;;7.53;100.00;103760.16;5090581;28;20047;-59
2023/02/13 04:01:48;;;;;;;45.75;24.38;;;;;;;7.49;100.00;103763.56;5088687;28;20028;-64
2023/02/13 04:04:22;;;;;;;40.88;22.73;;;;;;;7.50;100.00;103758.38;5089012;28;20111;-63
2023/02/13 04:07:07;;;;;;;43.55;23.50;;;;;;;7.61;100.00;103757.75;5090499;28;20016;-63
2023/02/13 04:09:36;;;;;;;44.40;22.88;;;;;;;7.58;100.00;103758.53;5089402;28;20561;-62
2023/02/13 04:12:49;;;;;;;46.65;23.17;;;;;;;7.65;100.00;103751.72;5087051;28;20737;-64
2023/02/13 04:15:20;;;;;;;41.50;23.02;;;;;;;7.61;100.00;103756.00;5079759;28;20032;-62
2023/02/13 04:17:53;;;;;;;46.13;22.77;;;;;;;7.64;100.00;103750.81;5085399;28;20028;-64
2023/02/13 04:20:19;;;;;;;45.58;23.13;;;;;;;7.53;100.00;103750.53;5071091;28;20042;-65
2023/02/13 04:22:45;;;;;;;41.70;23.08;;;;;;;7.47;100.00;103760.91;5068456;28;20017;-65
2023/02/13 04:25:12;;;;;;;49.47;23.30;;;;;;;7.66;100.00;103761.38;5068489;28;20016;-64
2023/02/13 04:27:38;;;;;;;42.40;21.90;;;;;;;7.59;100.00;103757.72;5079332;28;20028;-60
2023/02/13 04:30:05;;;;;;;46.05;22.90;;;;;;;7.55;100.00;103755.81;5089497;28;20497;-63
2023/02/13 04:32:30;;;;;;;42.53;23.10;;;;;;;7.58;100.00;103751.56;5087964;28;20111;-58
2023/02/13 04:34:55;;;;;;;40.17;21.63;;;;;;;7.65;100.00;103767.47;5088982;28;20452;-63
2023/02/13 04:37:23;;;;;;;41.17;22.48;;;;;;;7.58;100.00;103759.44;5089677;28;20104;-63
2023/02/13 04:39:48;;;;;;;38.80;21.13;;;;;;;7.55;100.00;103759.34;5089698;28;20339;-63
2023/02/13 04:42:14;;;;;;;38.47;21.10;;;;;;;7.67;100.00;103761.41;5082492;28;20027;-63
2023/02/13 04:44:39;;;;;;;40.63;22.27;;;;;;;7.64;100.00;103766.56;5068430;28;20035;-61
2023/02/13 04:47:04;;;;;;;42.08;22.08;;;;;;;7.58;100.00;103759.44;5067344;28;20025;-63
2023/02/13 04:49:30;;;;;;;40.45;21.15;;;;;;;7.52;100.00;103764.50;5082413;28;20642;-64
2023/02/13 04:51:55;;;;;;;41.88;21.23;;;;;;;7.64;100.00;103755.19;5088850;28;20023;-62
2023/02/13 04:54:20;;;;;;;42.65;22.02;;;;;;;7.45;100.00;103759.97;5089237;28;20016;-60
2023/02/13 04:56:46;;;;;;;44.92;21.35;;;;;;;7.49;100.00;103761.81;5089087;28;20040;-63
2023/02/13 04:59:11;;;;;;;41.20;21.92;;;;;;;7.45;100.00;103757.34;5088977;28;20050;-63
2023/02/13 05:01:36;;;;;;;38.53;21.45;;;;;;;7.52;100.00;103754.03;5088211;28;20433;-64
2023/02/13 05:04:02;;;;;;;41.05;21.45;;;;;;;7.64;100.00;103744.69;5087418;28;20455;-61
2023/02/13 05:06:27;;;;;;;41.17;21.58;;;;;;;7.58;100.00;103746.31;5088270;28;20024;-63
2023/02/13 05:08:52;;;;;;;40.72;21.85;;;;;;;7.63;100.00;103743.81;5074716;28;20176;-65
2023/02/13 05:11:18;;;;;;;36.95;19.95;;;;;;;7.56;100.00;103745.38;5068104;28;20028;-64
2023/02/13 05:13:43;;;;;;;41.50;20.88;;;;;;;7.54;100.00;103741.84;5072461;28;20024;-64
2023/02/13 05:16:09;;;;;;;40.75;20.92;;;;;;;7.58;100.00;103738.44;5078675;28;20020;-61
2023/02/13 05:18:35;;;;;;;43.30;21.10;;;;;;;7.57;100.00;103741.03;5079702;28;20024;-61
2023/02/13 05:23:44;;;;;;;40.75;20.05;;;;;;;7.59;100.00;103750.69;5087191;28;20047;-63
2023/02/13 05:26:09;;;;;;;37.95;19.77;;;;;;;7.65;100.00;103736.84;5087989;28;20544;-65
2023/02/13 05:31:18;;;;;;;41.63;19.65;;;;;;;7.58;100.00;103742.78;5087655;28;20555;-62
2023/02/13 05:33:44;;;;;;;40.95;20.55;;;;;;;7.58;100.00;103740.16;5087741;28;20047;-64
2023/02/13 05:36:09;;;;;;;38.92;20.10;;;;;;;7.63;100.00;103742.91;5087922;28;20013;-64
2023/02/13 05:38:34;;;;;;;38.65;19.88;;;;;;;7.53;100.00;103741.81;5087026;28;20024;-63
2023/02/13 05:41:00;;;;;;;36.10;18.70;;;;;;;7.69;100.00;103735.19;5087699;28;20055;-63
2023/02/13 05:43:27;;;;;;;44.78;20.75;;;;;;;7.65;100.00;103736.84;5087235;28;20386;-63
2023/02/13 05:46:09;;;;;;;40.72;21.23;;;;;;;7.68;100.00;103736.91;5086970;28;20102;-63
2023/02/13 05:48:35;;;;;;;40.35;20.85;;;;;;;7.64;100.00;103745.56;5087119;28;20016;-64
2023/02/13 05:51:00;;;;;;;36.53;19.80;;;;;;;7.58;100.00;103754.19;5087993;28;20523;-63
2023/02/13 05:53:26;;;;;;;36.95;19.42;;;;;;;7.68;100.00;103749.19;5085980;28;20048;-61
2023/02/13 05:55:52;;;;;;;40.15;20.88;;;;;;;7.56;100.00;103749.75;5088077;28;20145;-65
2023/02/13 05:58:18;;;;;;;44.10;20.38;;;;;;;7.53;100.00;103754.91;5079667;28;20023;-66
2023/02/13 06:00:44;;;;;;;43.55;20.63;;;;;;;7.58;100.00;103750.66;5069278;28;20042;-65
2023/02/13 06:03:09;;;;;;;35.15;18.85;;;;;;;7.60;100.00;103751.59;5066009;28;20028;-64
2023/02/13 06:05:35;;;;;;;42.33;21.10;;;;;;;7.60;100.00;103746.34;5065117;28;20021;-64
2023/02/13 06:08:00;;;;;;;39.65;20.17;;;;;;;7.52;100.00;103754.03;5064347;28;20422;-61
2023/02/13 06:10:26;;;;;;;40.33;20.88;;;;;;;7.51;100.00;103753.97;5066864;28;20032;-64
2023/02/13 06:12:51;;;;;;;41.75;21.38;;;;;;;7.51;100.00;103744.38;5067388;28;20039;-58
2023/02/13 06:15:16;;;;;;;40.35;20.52;;;;;;;7.52;100.00;103743.53;5067489;28;20032;-59
2023/02/13 06:17:42;;;;;;;46.40;21.10;;;;;;;7.49;100.00;103738.19;5067384;28;20477;-65
2023/02/13 06:20:08;;;;;;;42.28;20.25;;;;;;;7.54;100.00;103743.56;5067992;28;20035;-61
2023/02/13 06:22:33;;;;;;;42.83;21.75;;;;;;;7.58;100.00;103737.53;5066232;28;20077;-62
2023/02/13 06:24:58;;;;;;;40.35;20.77;;;;;;;7.54;100.00;103728.72;5066772;28;20141;-62
2023/02/13 06:27:24;;;;;;;41.60;22.25;;;;;;;7.53;100.00;103728.69;5067131;28;20040;-63
2023/02/13 06:29:49;;;;;;;41.05;20.23;;;;;;;7.53;100.00;103733.94;5069749;28;20124;-66
2023/02/13 06:32:14;;;;;;;41.30;20.90;;;;;;;7.43;100.00;103733.69;5074492;28;20068;-63
2023/02/13 06:34:40;;;;;;;45.25;22.08;;;;;;;7.45;100.00;103731.09;5077785;28;20046;-64
2023/02/13 06:37:05;;;;;;;45.40;21.83;;;;;;;7.51;100.00;103725.13;5076961;28;20029;-65
2023/02/13 06:39:30;;;;;;;40.63;21.17;;;;;;;7.52;100.00;103733.03;5077234;28;20024;-62
2023/02/13 06:41:56;;;;;;;43.67;21.50;;;;;;;7.46;100.00;103730.25;5073423;28;20024;-64
2023/02/13 06:44:21;;;;;;;42.47;22.02;;;;;;;7.44;100.00;103730.19;5065494;28;20023;-58
2023/02/13 06:46:46;;;;;;;44.72;23.20;;;;;;;7.43;100.00;103731.06;5065112;28;20167;-64
2023/02/13 06:49:12;;;;;;;47.92;23.00;;;;;;;7.40;100.00;103737.94;5066178;28;20371;-66
2023/02/13 06:51:37;;;;;;;44.85;21.52;;;;;;;7.44;100.00;103738.06;5067104;28;20025;-67
2023/02/13 06:54:03;;;;;;;44.65;22.33;;;;;;;7.46;100.00;103751.22;5068365;28;20016;-61
2023/02/13 06:56:29;;;;;;;45.47;22.80;;;;;;;7.49;100.00;103743.44;5066923;28;20032;-66
2023/02/13 06:58:54;;;;;;;48.55;23.27;;;;;;;7.49;100.00;103743.44;5065905;28;20025;-64
2023/02/13 07:01:19;;;;;;;47.55;22.92;;;;;;;7.53;100.00;103745.28;5066104;28;20532;-63
2023/02/13 07:03:47;;;;;;;46.90;24.88;;;;;;;7.47;100.00;103763.53;5066719;28;20035;-65
2023/02/13 07:06:21;;;;;;;44.05;22.50;;;;;;;7.52;100.00;103756.66;5066992;28;20462;-64
2023/02/13 07:08:50;;;;;;;47.88;23.70;;;;;;;7.55;100.00;103763.69;5067760;28;20142;-60
2023/02/13 07:11:17;;;;;;;52.13;25.40;;;;;;;7.54;100.00;103761.94;5067007;28;20035;-65
2023/02/13 07:13:42;;;;;;;46.40;22.75;;;;;;;7.63;100.00;103756.94;5069926;28;20036;-64
2023/02/13 07:16:08;;;;;;;51.17;24.27;;;;;;;7.61;100.00;103752.50;5075265;28;20059;-64
2023/02/13 07:18:33;;;;;;;46.58;23.45;;;;;;;7.70;100.00;103760.59;5088258;28;20027;-64
2023/02/13 07:20:58;;;;;;;45.38;23.38;;;;;;;7.65;100.00;103760.47;5090555;28;20087;-59
2023/02/13 07:23:24;;;;;;;45.47;23.27;;;;;;;7.68;100.00;103763.16;5089623;28;20046;-64
2023/02/13 07:25:49;;;;;;;47.42;24.35;;;;;;;7.71;100.00;103760.63;5090642;28;20051;-62
2023/02/13 07:28:14;;;;;;;47.70;22.95;;;;;;;7.76;100.00;103763.38;5089736;28;20038;-66
2023/02/13 07:30:40;;;;;;;49.20;22.90;;;;;;;7.79;100.00;103763.44;5082904;28;20062;-65
2023/02/13 07:33:05;;;;;;;44.10;23.02;;;;;;;7.81;100.00;103764.38;5069525;28;20031;-64
2023/02/13 07:35:31;;;;;;;45.17;23.50;;;;;;;7.86;100.00;103766.22;5070558;28;20541;-63
2023/02/13 07:37:56;;;;;;;47.05;23.13;;;;;;;7.91;100.00;103770.75;5070813;28;20067;-70
2023/02/13 07:40:22;;;;;;;45.70;23.35;;;;;;;8.01;100.00;103763.09;5070595;28;20033;-63
2023/02/13 07:42:47;;;;;;;45.45;23.42;;;;;;;8.11;100.00;103777.31;5079847;28;20028;-62
2023/02/13 07:45:14;;;;;;;43.38;23.10;;;;;;;8.09;100.00;103774.66;5087949;28;20024;-66
2023/02/13 07:47:40;;;;;;;44.63;22.67;;;;;;;8.09;100.00;103778.19;5088550;28;20022;-61
2023/02/13 07:50:06;;;;;;;41.60;23.95;;;;;;;8.15;100.00;103771.28;5089667;28;20020;-66
2023/02/13 07:52:32;;;;;;;50.00;24.73;;;;;;;8.24;100.00;103783.78;5089562;28;20492;-65
2023/02/13 07:54:57;;;;;;;47.28;24.02;;;;;;;8.29;100.00;103775.16;5090298;28;20100;-66
2023/02/13 07:57:23;;;;;;;46.78;23.98;;;;;;;8.29;100.00;103779.50;5089782;28;20085;-62
2023/02/13 07:59:48;;;;;;;46.15;24.30;;;;;;;8.28;100.00;103786.47;5090401;28;20153;-58
2023/02/13 08:02:14;;;;;;;45.13;23.50;;;;;;;8.37;100.00;103783.19;5086147;28;20070;-63
2023/02/13 08:04:40;;;;;;;44.50;23.40;;;;;;;8.32;100.00;103784.81;5088402;28;20079;-61
2023/02/13 08:07:05;;;;;;;46.42;24.15;;;;;;;8.24;100.00;103784.66;5089216;28;20663;-64
2023/02/13 08:12:14;;;;;;;49.72;24.52;;;;;;;7.96;100.00;103782.25;5087660;28;20185;-66
2023/02/13 08:14:40;;;;;;;45.03;22.92;;;;;;;7.87;100.00;103791.63;5088654;28;20024;-63
2023/02/13 08:17:05;;;;;;;47.78;22.65;;;;;;;7.91;100.00;103786.50;5088901;28;20012;-65
2023/02/13 08:19:30;;;;;;;45.45;24.77;;;;;;;7.87;100.00;103795.16;5090505;28;20103;-65
2023/02/13 08:21:56;;;;;;;50.92;25.45;;;;;;;7.82;100.00;103789.78;5091084;28;20052;-65
2023/02/13 08:24:22;;;;;;;43.72;23.50;;;;;;;7.81;100.00;103790.63;5088938;28;20142;-62
2023/02/13 08:26:47;;;;;;;46.10;24.88;;;;;;;7.81;100.00;103792.38;5087859;28;20069;-65
2023/02/13 08:29:13;;;;;;;44.10;24.73;;;;;;;7.81;100.00;103788.00;5088994;28;20019;-66
2023/02/13 08:31:38;;;;;;;47.40;23.90;;;;;;;7.81;100.00;103793.25;5088915;28;20074;-63
2023/02/13 08:34:04;;;;;;;52.20;24.83;;;;;;;7.76;100.00;103792.25;5089337;28;20148;-64
2023/02/13 08:36:30;;;;;;;48.88;25.48;;;;;;;7.70;100.00;103792.97;5089448;28;20039;-65
2023/02/13 08:38:55;;;;;;;49.85;25.08;;;;;;;7.75;100.00;103787.84;5081851;28;20028;-65
2023/02/13 08:41:21;;;;;;;57.47;26.40;;;;;;;7.77;100.00;103798.41;5089432;28;20513;-65
2023/02/13 08:43:48;;;;;;;52.03;26.25;;;;;;;7.81;100.00;103789.75;5085073;28;20513;-57
2023/02/13 08:46:14;;;;;;;49.42;25.23;;;;;;;7.84;100.00;103792.44;5087621;28;20054;-64
2023/02/13 08:48:39;;;;;;;48.53;25.15;;;;;;;7.88;100.00;103796.91;5088782;28;20519;-64
2023/02/13 08:51:09;;;;;;;50.90;25.50;;;;;;;7.83;100.00;103799.41;5089140;28;20120;-65
2023/02/13 08:53:35;;;;;;;45.92;24.27;;;;;;;7.89;100.00;103797.81;5088515;28;20012;-65
2023/02/13 08:56:00;;;;;;;49.95;26.40;;;;;;;7.83;100.00;103791.53;5088429;28;20595;-65
2023/02/13 08:58:26;;;;;;;54.90;26.08;;;;;;;7.68;100.00;103799.91;5088622;28;20028;-65
2023/02/13 09:00:53;;;;;;;51.25;26.25;;;;;;;7.66;100.00;103799.00;5083797;28;20043;-59
2023/02/13 09:03:18;;;;;;;52.58;26.90;;;;;;;7.82;100.00;103792.41;5087198;28;20020;-61
2023/02/13 09:05:43;;;;;;;54.45;27.67;;;;;;;7.91;100.00;103791.75;5086086;28;20034;-59
2023/02/13 09:08:12;;;;;;;49.88;27.67;;;;;;;7.87;100.00;103791.63;5089154;28;20639;-65
2023/02/13 09:10:38;;;;;;;53.45;27.15;;;;;;;7.86;100.00;103787.22;5088973;28;20355;-65
2023/02/13 09:13:04;;;;;;;51.40;27.80;;;;;;;7.69;100.00;103800.81;5088224;28;20020;-69
2023/02/13 09:15:30;;;;;;;54.17;28.15;;;;;;;7.84;100.00;103797.69;5088457;28;20030;-61
2023/02/13 09:17:56;;;;;;;51.65;27.17;;;;;;;7.97;100.00;103793.63;5088965;28;20024;-65
2023/02/13 09:20:22;;;;;;;53.90;28.10;;;;;;;8.02;100.00;103797.28;5089113;28;20031;-59
2023/02/13 09:22:47;;;;;;;52.95;28.15;;;;;;;8.04;100.00;103794.69;5085283;28;20044;-65
2023/02/13 09:25:13;;;;;;;47.63;25.58;;;;;;;8.09;100.00;103796.56;5077963;28;20016;-64
2023/02/13 09:27:38;;;;;;;48.88;27.08;;;;;;;8.18;100.00;103797.63;5087485;28;20153;-64
2023/02/13 09:30:08;;;;;;;53.63;28.38;;;;;;;8.24;100.00;103789.91;5085253;28;20386;-64
2023/02/13 09:32:36;;;;;;;53.22;27.90;;;;;;;8.33;100.00;103792.75;5086520;28;20035;-64
2023/02/13 09:35:02;;;;;;;56.17;26.60;;;;;;;8.21;100.00;103792.44;5087963;28;20028;-64
2023/02/13 09:37:27;;;;;;;48.70;27.25;;;;;;;8.32;100.00;103803.22;5087932;28;20012;-62
2023/02/13 09:39:52;;;;;;;54.65;28.83;;;;;;;8.00;100.00;103803.34;5088115;28;20117;-65
2023/02/13 09:42:23;;;;;;;50.33;27.83;;;;;;;7.96;100.00;103800.63;5088874;28;20471;-65
2023/02/13 09:44:50;;;;;;;54.72;28.48;;;;;;;8.20;100.00;103801.19;5077922;28;20078;-65
2023/02/13 09:47:28;;;;;;;52.55;28.83;;;;;;;7.99;100.00;103802.44;5066038;28;20024;-64
2023/02/13 09:50:21;;;;;;;53.72;28.35;;;;;;;7.92;100.00;103803.16;5068510;28;20029;-66
2023/02/13 09:52:48;;;;;;;56.42;29.88;;;;;;;7.97;100.00;103799.78;5066789;28;20461;-65
2023/02/13 09:55:16;;;;;;;53.88;27.63;;;;;;;8.01;100.00;103805.13;5068537;28;20090;-66
2023/02/13 09:57:47;;;;;;;54.72;28.13;;;;;;;7.95;100.00;103795.34;5066274;28;20037;-63
2023/02/13 10:00:24;;;;;;;56.00;28.58;;;;;;;7.96;100.00;103789.25;5064912;28;20101;-63
2023/02/13 10:03:23;;;;;;;50.50;28.48;;;;;;;8.23;100.00;103790.75;5077130;28;20538;-63
2023/02/13 10:05:56;;;;;;;51.95;28.65;;;;;;;8.11;100.00;103790.47;5077353;28;20025;-63
2023/02/13 10:08:38;;;;;;;59.17;30.00;;;;;;;8.20;100.00;103791.59;5079089;28;20569;-59
2023/02/13 10:11:31;;;;;;;52.35;28.90;;;;;;;8.58;100.00;103792.47;5087884;28;20107;-65
2023/02/13 10:14:16;;;;;;;55.85;29.35;;;;;;;8.52;100.00;103784.41;5068035;28;20036;-63
2023/02/13 10:17:05;;;;;;;56.92;29.73;;;;;;;8.54;100.00;103788.84;5069846;28;20055;-64
2023/02/13 10:19:35;;;;;;;54.45;29.08;;;;;;;8.33;100.00;103789.22;5085136;28;20047;-65
2023/02/13 10:22:18;;;;;;;56.55;30.25;;;;;;;8.63;100.00;103782.03;5087119;28;20020;-64
2023/02/13 10:24:51;;;;;;;57.72;30.38;;;;;;;8.81;100.00;103779.78;5085059;28;20040;-62
2023/02/13 10:27:21;;;;;;;56.47;29.60;;;;;;;8.85;100.00;103783.38;5086002;28;20085;-63
2023/02/13 10:30:13;;;;;;;58.38;29.88;;;;;;;8.86;100.00;103777.28;5086940;28;20153;-65
2023/02/13 10:32:47;;;;;;;56.95;30.88;;;;;;;9.06;100.00;103774.16;5085504;28;20035;-69
2023/02/13 10:35:38;;;;;;;60.47;30.25;;;;;;;9.15;100.00;103779.59;5086448;28;20486;-66
2023/02/13 10:38:13;;;;;;;56.95;29.83;;;;;;;9.05;100.00;103783.78;5085479;28;20043;-63
2023/02/13 10:40:48;;;;;;;60.03;29.45;;;;;;;9.27;100.00;103778.06;5089858;28;20032;-60
2023/02/13 10:43:19;;;;;;;59.40;31.05;;;;;;;9.36;100.00;103778.22;5068145;28;20037;-66
2023/02/13 10:46:06;;;;;;;66.45;32.28;;;;;;;9.40;100.00;103779.16;5066498;28;20514;-65
2023/02/13 10:48:58;;;;;;;57.28;30.40;;;;;;;9.66;100.00;103773.50;5067011;28;20036;-65
2023/02/13 10:52:00;;;;;;;61.08;31.30;;;;;;;9.58;100.00;103773.34;5069087;28;20033;-65
2023/02/13 10:54:53;;;;;;;62.33;31.40;;;;;;;9.40;100.00;103773.91;5070450;28;20146;-63
2023/02/13 10:57:47;;;;;;;57.88;29.70;;;;;;;9.22;100.00;103775.34;5069850;28;20032;-63
2023/02/13 11:00:30;;;;;;;58.20;29.70;;;;;;;9.34;100.00;103778.19;5058810;28;20064;-66
2023/02/13 11:02:56;;;;;;;63.95;31.38;;;;;;;9.66;100.00;103773.50;5079175;28;20012;-66
2023/02/13 11:05:24;;;;;;;60.00;31.05;;;;;;;9.83;100.00;103774.66;5079538;28;20047;-57
2023/02/13 11:07:50;;;;;;;65.35;30.27;;;;;;;10.01;100.00;103772.28;5079877;28;20035;-64
2023/02/13 11:10:21;;;;;;;57.88;29.98;;;;;;;9.94;100.00;103772.19;5083939;28;20020;-65
2023/02/13 11:12:47;;;;;;;59.40;29.45;;;;;;;9.89;100.00;103772.97;5089509;28;20415;-64
2023/02/13 11:15:30;;;;;;;52.13;26.60;;;;;;;10.08;100.00;103768.88;5089928;28;20094;-66
2023/02/13 11:18:02;;;;;;;55.15;29.15;;;;;;;9.91;100.00;103760.72;5089102;28;20039;-63
2023/02/13 11:20:34;;;;;;;56.83;28.48;;;;;;;9.85;100.00;103751.84;5089767;28;20088;-63
2023/02/13 11:23:24;;;;;;;53.47;27.85;;;;;;;9.95;100.00;103752.00;5090985;28;20055;-65
2023/02/13 11:26:08;;;;;;;54.72;29.17;;;;;;;10.24;100.00;103748.94;5086211;28;20028;-64
2023/02/13 11:28:36;;;;;;;51.30;26.65;;;;;;;10.30;100.00;103740.22;5080276;28;20092;-64
2023/02/13 11:31:17;;;;;;;45.97;26.45;;;;;;;10.46;100.00;103736.97;5083562;28;20467;-66
2023/02/13 11:33:43;;;;;;;45.75;25.10;;;;;;;10.55;100.00;103737.94;5089522;28;20055;-61
2023/02/13 11:36:14;;;;;;;44.85;24.35;;;;;;;10.61;100.00;103733.66;5089238;28;20485;-64
2023/02/13 11:38:39;;;;;;;39.92;22.83;;;;;;;10.55;100.00;103724.75;5089694;28;20748;-65
2023/02/13 11:41:13;;;;;;;41.25;22.98;;;;;;;10.80;100.00;103722.41;5089993;28;20020;-63
2023/02/13 11:43:48;;;;;;;41.65;23.23;;;;;;;10.93;100.00;103719.03;5088194;28;20020;-66
2023/02/13 11:46:20;;;;;;;53.97;25.10;;;;;;;10.85;100.00;103721.63;5089142;28;20416;-61
2023/02/13 11:48:59;;;;;;;44.72;25.00;;;;;;;10.98;100.00;103717.34;5090141;28;20031;-65
2023/02/13 11:51:40;;;;;;;45.05;23.10;;;;;;;11.12;100.00;103714.88;5089567;28;20486;-64
2023/02/13 11:54:06;;;;;;;46.30;23.42;;;;;;;11.23;100.00;103727.28;5089775;28;20024;-60
2023/02/13 11:56:54;;;;;;;39.50;22.33;;;;;;;11.46;100.00;103724.84;5080733;28;20020;-67
2023/02/13 11:59:24;;;;;;;35.63;19.85;;;;;;;11.59;100.00;103717.91;5086314;28;20039;-66
2023/02/13 12:02:19;;;;;;;37.03;20.67;;;;;;;11.56;100.00;103715.22;5089105;28;20040;-63
2023/02/13 12:04:45;;;;;;;34.92;20.63;;;;;;;11.70;100.00;103718.00;5081908;28;20194;-64
2023/02/13 12:07:16;;;;;;;32.70;20.67;;;;;;;11.52;100.00;103716.09;5076737;28;20504;-65